createdAt,value
2017-07-23T00:00:49.200Z,30.63
2017-07-23T00:03:17.624Z,18.63
2017-07-23T00:05:45.885Z,37.93
2017-07-23T00:08:14.126Z,26.37
2017-07-23T00:10:42.381Z,23.37
2017-07-23T00:13:11.404Z,19.93
2017-07-23T00:15:39.682Z,19.47
2017-07-23T00:18:07.965Z,26.90
2017-07-23T00:20:36.283Z,34.43
2017-07-23T00:23:04.511Z,23.03
2017-07-23T00:25:32.773Z,22.00
2017-07-23T00:28:02.083Z,24.40
2017-07-23T00:30:30.322Z,25.50
2017-07-23T00:32:59.372Z,21.77
2017-07-23T00:35:27.672Z,19.30
2017-07-23T00:37:55.922Z,18.80
2017-07-23T00:40:24.202Z,21.83
2017-07-23T00:42:52.468Z,20.67
2017-07-23T00:45:21.509Z,21.07
2017-07-23T00:47:49.776Z,26.27
2017-07-23T00:50:18.037Z,25.73
2017-07-23T00:52:46.335Z,21.07
2017-07-23T00:55:14.587Z,26.53
2017-07-23T00:57:42.840Z,19.43
2017-07-23T01:00:11.884Z,27.53
2017-07-23T01:02:40.670Z,19.73
2017-07-23T01:05:08.924Z,24.17
2017-07-23T01:07:37.158Z,23.63
2017-07-23T01:10:06.210Z,21.13
2017-07-23T01:12:34.438Z,26.13
2017-07-23T01:15:03.474Z,23.07
2017-07-23T01:17:31.755Z,20.13
2017-07-23T01:20:00.000Z,20.57
2017-07-23T01:22:29.036Z,27.53
2017-07-23T01:24:57.308Z,31.10
2017-07-23T01:27:25.542Z,26.53
2017-07-23T01:29:54.545Z,24.13
2017-07-23T01:32:22.818Z,25.30
2017-07-23T01:34:51.094Z,27.10
2017-07-23T01:37:19.348Z,27.20
2017-07-23T01:39:47.593Z,42.40
2017-07-23T01:42:15.843Z,28.30
2017-07-23T01:44:44.123Z,23.50
2017-07-23T01:47:12.358Z,20.70
2017-07-23T01:49:40.638Z,31.03
2017-07-23T01:52:09.711Z,30.57
2017-07-23T01:54:38.002Z,28.30
2017-07-23T01:57:07.067Z,31.13
2017-07-23T01:59:35.333Z,31.87
2017-07-23T02:02:03.622Z,32.27
2017-07-23T02:04:31.898Z,29.80
2017-07-23T02:07:00.187Z,30.10
2017-07-23T02:09:28.434Z,22.20
2017-07-23T02:11:56.827Z,25.83
2017-07-23T02:14:25.099Z,16.20
2017-07-23T02:16:53.351Z,14.93
2017-07-23T02:19:23.199Z,19.00
2017-07-23T02:21:51.457Z,17.80
2017-07-23T02:24:19.742Z,19.33
2017-07-23T02:26:47.986Z,17.60
2017-07-23T02:29:17.006Z,15.83
2017-07-23T02:31:45.292Z,15.30
2017-07-23T02:34:13.531Z,14.53
2017-07-23T02:36:42.566Z,28.73
2017-07-23T02:39:10.814Z,14.77
2017-07-23T02:41:39.824Z,17.37
2017-07-23T02:44:08.094Z,17.83
2017-07-23T02:46:36.354Z,12.10
2017-07-23T02:49:04.578Z,12.83
2017-07-23T02:51:32.876Z,19.67
2017-07-23T02:54:01.125Z,16.17
2017-07-23T02:56:29.395Z,21.37
2017-07-23T02:58:57.658Z,13.60
2017-07-23T03:01:26.665Z,19.13
2017-07-23T03:03:54.925Z,14.13
2017-07-23T03:06:23.209Z,16.27
2017-07-23T03:08:51.464Z,16.67
2017-07-23T03:11:20.501Z,15.57
2017-07-23T03:13:48.777Z,17.43
2017-07-23T03:16:17.025Z,17.00
2017-07-23T03:18:46.044Z,18.60
2017-07-23T03:21:14.297Z,17.47
2017-07-23T03:23:43.322Z,23.43
2017-07-23T03:26:11.606Z,22.20
2017-07-23T03:28:39.881Z,18.70
2017-07-23T03:31:08.123Z,19.63
2017-07-23T03:33:36.396Z,25.33
2017-07-23T03:36:05.416Z,23.50
2017-07-23T03:38:33.679Z,21.40
2017-07-23T03:41:01.946Z,31.03
2017-07-23T03:43:30.375Z,20.17
2017-07-23T03:45:58.601Z,15.27
2017-07-23T03:48:26.854Z,20.13
2017-07-23T03:50:55.117Z,24.03
2017-07-23T03:53:23.364Z,16.37
2017-07-23T03:55:51.624Z,16.20
2017-07-23T03:58:19.913Z,10.80
2017-07-23T04:00:48.193Z,11.67
2017-07-23T04:03:16.439Z,14.50
2017-07-23T04:05:45.451Z,11.93
2017-07-23T04:08:13.712Z,16.60
2017-07-23T04:10:42.744Z,15.17
2017-07-23T04:13:10.981Z,12.40
2017-07-23T04:15:39.297Z,11.70
2017-07-23T04:18:07.538Z,10.63
2017-07-23T04:20:36.545Z,11.50
2017-07-23T04:23:04.833Z,12.67
2017-07-23T04:25:33.046Z,12.83
2017-07-23T04:28:01.313Z,10.60
2017-07-23T04:30:29.569Z,11.37
2017-07-23T04:32:57.843Z,17.70
2017-07-23T04:35:26.073Z,10.80
2017-07-23T04:37:55.099Z,9.40
2017-07-23T04:40:23.349Z,10.67
2017-07-23T04:42:52.378Z,10.97
2017-07-23T04:45:20.683Z,10.93
2017-07-23T04:47:48.899Z,7.60
2017-07-23T04:50:17.913Z,9.93
2017-07-23T04:52:46.195Z,12.90
2017-07-23T04:55:14.474Z,9.63
2017-07-23T04:57:43.452Z,8.60
2017-07-23T05:00:12.446Z,8.80
2017-07-23T05:02:40.744Z,4.20
2017-07-23T05:05:08.965Z,4.03
2017-07-23T05:07:37.240Z,5.70
2017-07-23T05:10:05.477Z,4.30
2017-07-23T05:12:33.719Z,5.97
2017-07-23T05:15:02.738Z,3.90
2017-07-23T05:17:30.994Z,4.00
2017-07-23T05:19:59.275Z,10.13
2017-07-23T05:22:28.280Z,3.30
2017-07-23T05:24:57.266Z,4.30
2017-07-23T05:27:26.310Z,3.07
2017-07-23T05:29:54.546Z,4.07
2017-07-23T05:32:22.812Z,4.23
2017-07-23T05:34:51.082Z,4.30
2017-07-23T05:37:19.313Z,4.30
2017-07-23T05:39:47.593Z,4.03
2017-07-23T05:42:15.818Z,8.10
2017-07-23T05:44:44.842Z,10.70
2017-07-23T05:47:13.135Z,10.43
2017-07-23T05:49:41.376Z,10.13
2017-07-23T05:52:10.370Z,4.80
2017-07-23T05:54:38.628Z,4.10
2017-07-23T05:57:07.643Z,5.93
2017-07-23T05:59:35.905Z,7.90
2017-07-23T06:02:04.165Z,6.90
2017-07-23T06:04:32.427Z,5.87
2017-07-23T06:07:00.694Z,7.70
2017-07-23T06:09:28.957Z,7.90
2017-07-23T06:11:57.200Z,18.67
2017-07-23T06:14:25.464Z,2.40
2017-07-23T06:16:54.473Z,5.70
2017-07-23T06:19:23.466Z,4.50
2017-07-23T06:21:51.743Z,3.57
2017-07-23T06:24:20.766Z,8.63
2017-07-23T06:26:49.036Z,4.70
2017-07-23T06:29:17.280Z,3.60
2017-07-23T06:31:45.513Z,4.40
2017-07-23T06:34:13.778Z,10.80
2017-07-23T06:36:42.050Z,5.30
2017-07-23T06:39:10.287Z,6.23
2017-07-23T06:41:39.289Z,5.00
2017-07-23T06:44:08.306Z,5.40
2017-07-23T06:46:36.581Z,10.73
2017-07-23T06:49:05.601Z,8.00
2017-07-23T06:51:33.831Z,7.17
2017-07-23T06:54:02.050Z,8.20
2017-07-23T06:56:30.543Z,6.33
2017-07-23T06:58:58.791Z,7.77
2017-07-23T07:01:27.076Z,8.07
2017-07-23T07:03:55.467Z,12.77
2017-07-23T07:06:23.707Z,10.73
2017-07-23T07:08:52.733Z,4.97
2017-07-23T07:11:20.968Z,9.70
2017-07-23T07:13:49.980Z,8.27
2017-07-23T07:16:18.206Z,9.33
2017-07-23T07:18:46.474Z,8.53
2017-07-23T07:21:14.741Z,6.53
2017-07-23T07:23:42.965Z,6.63
2017-07-23T07:26:12.109Z,7.00
2017-07-23T07:28:40.322Z,4.10
2017-07-23T07:31:08.549Z,9.07
2017-07-23T07:33:36.811Z,3.90
2017-07-23T07:36:05.221Z,16.90
2017-07-23T07:38:33.483Z,8.73
2017-07-23T07:41:01.715Z,8.00
2017-07-23T07:43:29.985Z,5.70
2017-07-23T07:45:58.246Z,4.47
2017-07-23T07:48:26.482Z,10.83
2017-07-23T07:50:54.742Z,6.50
2017-07-23T07:53:23.730Z,11.67
2017-07-23T07:55:51.993Z,6.63
2017-07-23T07:58:20.238Z,5.13
2017-07-23T08:00:48.520Z,3.17
2017-07-23T08:03:16.783Z,2.60
2017-07-23T08:05:45.010Z,7.83
2017-07-23T08:08:14.062Z,5.50
2017-07-23T08:10:42.294Z,2.40
2017-07-23T08:13:10.567Z,6.23
2017-07-23T08:15:39.587Z,5.97
2017-07-23T08:18:07.879Z,10.30
2017-07-23T08:20:36.123Z,5.00
2017-07-23T08:23:04.419Z,10.53
2017-07-23T08:25:32.699Z,5.50
2017-07-23T08:28:01.054Z,2.63
2017-07-23T08:30:29.325Z,4.83
2017-07-23T08:32:58.303Z,7.30
2017-07-23T08:35:27.336Z,10.77
2017-07-23T08:37:55.591Z,8.40
2017-07-23T08:40:24.603Z,11.60
2017-07-23T08:42:52.874Z,23.53
2017-07-23T08:45:21.140Z,10.23
2017-07-23T08:47:50.172Z,4.00
2017-07-23T08:50:18.406Z,10.27
2017-07-23T08:52:47.465Z,6.03
2017-07-23T08:55:15.701Z,7.93
2017-07-23T08:57:43.974Z,4.50
2017-07-23T09:00:12.250Z,11.60
2017-07-23T09:02:40.523Z,6.03
2017-07-23T09:05:08.812Z,3.80
2017-07-23T09:07:37.049Z,4.90
2017-07-23T09:10:06.101Z,9.73
2017-07-23T09:12:34.346Z,4.87
2017-07-23T09:15:02.615Z,4.30
2017-07-23T09:17:30.914Z,4.97
2017-07-23T09:19:59.150Z,7.20
2017-07-23T09:22:27.401Z,3.53
2017-07-23T09:24:55.665Z,7.83
2017-07-23T09:27:23.913Z,6.40
2017-07-23T09:29:52.185Z,10.87
2017-07-23T09:32:21.179Z,3.93
2017-07-23T09:34:49.452Z,4.53
2017-07-23T09:37:18.473Z,5.33
2017-07-23T09:39:46.779Z,6.40
2017-07-23T09:42:15.078Z,5.23
2017-07-23T09:44:44.159Z,10.30
2017-07-23T09:47:12.385Z,6.33
2017-07-23T09:49:40.666Z,13.03
2017-07-23T09:52:08.907Z,5.77
2017-07-23T09:54:37.172Z,5.17
2017-07-23T09:57:05.463Z,3.97
2017-07-23T09:59:33.750Z,12.83
2017-07-23T10:02:02.249Z,16.03
2017-07-23T10:04:31.302Z,3.60
2017-07-23T10:06:59.547Z,6.20
2017-07-23T10:09:27.822Z,4.90
2017-07-23T10:11:56.129Z,5.10
2017-07-23T10:14:25.198Z,10.27
2017-07-23T10:16:53.430Z,2.70
2017-07-23T10:19:22.475Z,3.80
2017-07-23T10:21:50.760Z,10.37
2017-07-23T10:24:19.083Z,5.57
2017-07-23T10:26:48.132Z,3.80
2017-07-23T10:29:16.405Z,3.23
2017-07-23T10:31:44.682Z,3.33
2017-07-23T10:34:13.085Z,7.23
2017-07-23T10:36:41.378Z,4.80
2017-07-23T10:39:09.664Z,9.80
2017-07-23T10:41:37.942Z,4.27
2017-07-23T10:44:06.207Z,9.60
2017-07-23T10:46:34.492Z,8.53
2017-07-23T10:49:02.865Z,7.20
2017-07-23T10:51:31.145Z,3.23
2017-07-23T10:53:59.404Z,8.53
2017-07-23T10:56:27.677Z,4.40
2017-07-23T10:58:55.984Z,12.13
2017-07-23T11:01:26.299Z,8.90
2017-07-23T11:03:54.532Z,7.40
2017-07-23T11:06:23.749Z,2.83
2017-07-23T11:08:52.098Z,2.07
2017-07-23T11:11:20.362Z,6.17
2017-07-23T11:13:48.661Z,7.60
2017-07-23T11:16:17.005Z,3.30
2017-07-23T11:18:45.243Z,10.70
2017-07-23T11:21:13.520Z,2.73
2017-07-23T11:23:41.782Z,5.00
2017-07-23T11:26:10.005Z,4.53
2017-07-23T11:28:38.263Z,2.50
2017-07-23T11:31:06.534Z,10.93
2017-07-23T11:33:34.795Z,10.17
2017-07-23T11:36:03.054Z,11.07
2017-07-23T11:38:31.324Z,4.97
2017-07-23T11:40:59.631Z,6.20
2017-07-23T11:43:27.907Z,9.77
2017-07-23T11:45:56.175Z,7.27
2017-07-23T11:48:24.461Z,4.70
2017-07-23T11:50:52.706Z,10.23
2017-07-23T11:53:20.942Z,8.50
2017-07-23T11:55:50.011Z,4.70
2017-07-23T11:58:18.295Z,2.40
2017-07-23T12:00:46.554Z,4.60
2017-07-23T12:03:14.798Z,2.20
2017-07-23T12:05:43.026Z,6.00
2017-07-23T12:08:11.284Z,8.60
2017-07-23T12:10:39.517Z,7.23
2017-07-23T12:13:07.822Z,5.60
2017-07-23T12:15:36.092Z,4.83
2017-07-23T12:18:04.384Z,2.30
2017-07-23T12:20:33.476Z,5.20
2017-07-23T12:23:01.734Z,5.13
2017-07-23T12:25:30.035Z,4.93
2017-07-23T12:27:58.279Z,7.40
2017-07-23T12:30:27.266Z,3.87
2017-07-23T12:32:55.581Z,4.50
2017-07-23T12:35:23.856Z,8.53
2017-07-23T12:37:52.156Z,7.80
2017-07-23T12:40:20.393Z,2.40
2017-07-23T12:42:49.361Z,8.20
2017-07-23T12:45:18.380Z,9.70
2017-07-23T12:47:47.087Z,4.40
2017-07-23T12:50:16.075Z,4.67
2017-07-23T12:52:44.305Z,7.40
2017-07-23T12:55:12.572Z,2.43
2017-07-23T12:57:40.831Z,4.27
2017-07-23T13:00:09.506Z,3.77
2017-07-23T13:02:37.776Z,6.20
2017-07-23T13:05:06.048Z,5.80
2017-07-23T13:07:34.284Z,9.57
2017-07-23T13:10:02.872Z,6.10
2017-07-23T13:12:31.127Z,5.40
2017-07-23T13:15:00.396Z,4.90
2017-07-23T13:17:28.713Z,9.97
2017-07-23T13:19:56.998Z,5.97
2017-07-23T13:22:25.583Z,3.33
2017-07-23T13:24:54.230Z,4.20
2017-07-23T13:27:22.463Z,4.57
2017-07-23T13:29:50.732Z,9.17
2017-07-23T13:32:18.987Z,6.43
2017-07-23T13:34:47.262Z,10.80
2017-07-23T13:37:16.512Z,6.63
2017-07-23T13:39:45.503Z,3.67
2017-07-23T13:42:13.779Z,4.80
2017-07-23T13:44:42.018Z,5.37
2017-07-23T13:47:10.317Z,12.47
2017-07-23T13:49:39.343Z,5.97
2017-07-23T13:52:07.622Z,6.50
2017-07-23T13:54:36.638Z,5.00
2017-07-23T13:57:04.896Z,7.13
2017-07-23T13:59:33.517Z,8.50
2017-07-23T14:02:01.758Z,6.73
2017-07-23T14:04:30.003Z,4.53
2017-07-23T14:06:59.031Z,8.27
2017-07-23T14:09:27.437Z,3.63
2017-07-23T14:11:55.702Z,4.90
2017-07-23T14:14:23.939Z,4.50
2017-07-23T14:16:52.212Z,4.83
2017-07-23T14:19:21.225Z,5.93
2017-07-23T14:21:49.482Z,10.00
2017-07-23T14:24:17.778Z,10.90
2017-07-23T14:26:46.037Z,3.07
2017-07-23T14:29:15.061Z,9.97
2017-07-23T14:31:43.333Z,5.93
2017-07-23T14:34:12.598Z,4.27
2017-07-23T14:36:40.857Z,8.13
2017-07-23T14:39:09.169Z,3.73
2017-07-23T14:41:37.773Z,7.20
2017-07-23T14:44:06.020Z,2.37
2017-07-23T14:46:35.453Z,5.27
2017-07-23T14:49:03.737Z,8.10
2017-07-23T14:51:32.007Z,6.73
2017-07-23T14:54:00.315Z,6.60
2017-07-23T14:56:28.579Z,4.10
2017-07-23T14:58:56.851Z,7.67
2017-07-23T15:01:25.125Z,11.30
2017-07-23T15:03:53.398Z,5.03
2017-07-23T15:06:21.629Z,5.70
2017-07-23T15:08:50.722Z,5.60
2017-07-23T15:11:18.964Z,8.10
2017-07-23T15:13:47.306Z,9.40
2017-07-23T15:16:15.670Z,5.60
2017-07-23T15:18:43.995Z,3.60
2017-07-23T15:21:12.283Z,5.23
2017-07-23T15:23:40.561Z,7.73
2017-07-23T15:26:08.833Z,3.20
2017-07-23T15:28:37.126Z,3.97
2017-07-23T15:31:06.291Z,2.47
2017-07-23T15:33:34.694Z,11.83
2017-07-23T15:36:03.007Z,3.50
2017-07-23T15:38:31.263Z,5.50
2017-07-23T15:40:59.613Z,2.33
2017-07-23T15:43:27.859Z,4.50
2017-07-23T15:45:56.305Z,6.83
2017-07-23T15:48:24.755Z,6.57
2017-07-23T15:50:53.932Z,10.80
2017-07-23T15:53:23.313Z,3.03
2017-07-23T15:55:52.309Z,7.57
2017-07-23T15:58:21.407Z,4.00
2017-07-23T16:00:49.706Z,6.03
2017-07-23T16:03:17.985Z,13.23
2017-07-23T16:05:46.236Z,9.13
2017-07-23T16:08:14.847Z,5.73
2017-07-23T16:10:43.066Z,8.10
2017-07-23T16:13:11.379Z,4.83
2017-07-23T16:15:39.602Z,4.20
2017-07-23T16:18:07.887Z,66.40
2017-07-23T16:20:36.198Z,8.73
2017-07-23T16:23:04.470Z,1.70
2017-07-23T16:25:32.672Z,5.13
2017-07-23T16:28:00.984Z,3.57
2017-07-23T16:30:29.276Z,8.00
2017-07-23T16:32:58.489Z,5.53
2017-07-23T16:35:26.773Z,6.30
2017-07-23T16:37:55.854Z,7.93
2017-07-23T16:40:24.159Z,5.47
2017-07-23T16:42:52.460Z,6.40
2017-07-23T16:45:20.772Z,1.60
2017-07-23T16:47:49.057Z,4.27
2017-07-23T16:50:17.343Z,4.87
2017-07-23T16:52:45.612Z,3.27
2017-07-23T16:55:13.953Z,8.30
2017-07-23T16:57:42.243Z,3.73
2017-07-23T17:00:12.180Z,5.33
2017-07-23T17:02:41.627Z,2.10
2017-07-23T17:05:10.640Z,2.53
2017-07-23T17:07:38.915Z,5.90
2017-07-23T17:10:07.187Z,5.53
2017-07-23T17:12:36.228Z,4.10
2017-07-23T17:15:04.463Z,1.90
2017-07-23T17:17:32.767Z,4.83
2017-07-23T17:20:01.071Z,10.00
2017-07-23T17:22:29.384Z,6.73
2017-07-23T17:24:57.718Z,4.40
2017-07-23T17:27:26.008Z,11.03
2017-07-23T17:29:55.063Z,4.80
2017-07-23T17:32:24.685Z,7.60
2017-07-23T17:34:52.956Z,9.03
2017-07-23T17:37:21.255Z,13.87
2017-07-23T17:39:49.537Z,6.70
2017-07-23T17:42:17.861Z,3.80
2017-07-23T17:44:46.947Z,11.00
2017-07-23T17:47:15.959Z,5.90
2017-07-23T17:49:44.248Z,11.03
2017-07-23T17:52:12.596Z,4.37
2017-07-23T17:54:40.892Z,5.43
2017-07-23T17:57:09.190Z,8.47
2017-07-23T17:59:37.783Z,2.97
2017-07-23T18:02:06.092Z,8.33
2017-07-23T18:04:34.426Z,5.30
2017-07-23T18:07:02.719Z,6.40
2017-07-23T18:09:31.041Z,6.87
2017-07-23T18:12:00.835Z,4.80
2017-07-23T18:14:29.147Z,4.90
2017-07-23T18:16:58.170Z,6.67
2017-07-23T18:19:26.450Z,2.33
2017-07-23T18:21:54.753Z,5.10
2017-07-23T18:24:23.063Z,6.03
2017-07-23T18:26:52.115Z,6.43
2017-07-23T18:29:20.448Z,7.37
2017-07-23T18:31:49.498Z,10.40
2017-07-23T18:34:17.750Z,7.77
2017-07-23T18:36:46.064Z,4.17
2017-07-23T18:39:14.306Z,6.07
2017-07-23T18:41:42.618Z,6.30
2017-07-23T18:44:11.559Z,3.30
2017-07-23T18:46:40.057Z,13.27
2017-07-23T18:49:08.322Z,9.33
2017-07-23T18:51:36.585Z,4.00
2017-07-23T18:54:05.688Z,5.83
2017-07-23T18:56:34.166Z,23.87
2017-07-23T18:59:04.271Z,3.03
2017-07-23T19:01:33.374Z,11.33
2017-07-23T19:04:02.398Z,11.37
2017-07-23T19:06:30.763Z,5.10
2017-07-23T19:08:59.093Z,12.90
2017-07-23T19:11:27.415Z,9.00
2017-07-23T19:13:56.679Z,6.37
2017-07-23T19:16:25.754Z,5.73
2017-07-23T19:18:54.427Z,8.57
2017-07-23T19:21:22.728Z,4.93
2017-07-23T19:23:51.012Z,3.43
2017-07-23T19:26:19.455Z,6.50
2017-07-23T19:28:47.666Z,5.20
2017-07-23T19:31:15.955Z,8.00
2017-07-23T19:33:44.232Z,7.10
2017-07-23T19:36:13.296Z,5.90
2017-07-23T19:38:41.601Z,6.97
2017-07-23T19:41:09.845Z,7.57
2017-07-23T19:43:38.417Z,28.93
2017-07-23T19:46:06.705Z,3.40
2017-07-23T19:48:34.972Z,4.80
2017-07-23T19:51:03.365Z,11.87
2017-07-23T19:53:31.615Z,3.87
2017-07-23T19:55:59.921Z,3.30
2017-07-23T19:58:28.164Z,8.63
2017-07-23T20:00:57.185Z,5.70
2017-07-23T20:03:25.481Z,7.37
2017-07-23T20:05:53.737Z,6.50
2017-07-23T20:08:22.009Z,6.47
2017-07-23T20:10:50.286Z,4.60
2017-07-23T20:13:18.565Z,9.20
2017-07-23T20:15:46.927Z,3.90
2017-07-23T20:18:15.184Z,7.90
2017-07-23T20:20:43.457Z,3.43
2017-07-23T20:23:11.728Z,3.90
2017-07-23T20:25:39.974Z,5.73
2017-07-23T20:28:08.332Z,3.73
2017-07-23T20:30:36.691Z,7.27
2017-07-23T20:33:05.036Z,6.60
2017-07-23T20:35:33.279Z,4.50
2017-07-23T20:38:01.581Z,7.60
2017-07-23T20:40:29.844Z,11.67
2017-07-23T20:42:58.144Z,8.57
2017-07-23T20:45:26.408Z,7.50
2017-07-23T20:47:54.716Z,6.23
2017-07-23T20:50:23.028Z,6.73
2017-07-23T20:52:52.580Z,5.63
2017-07-23T20:55:20.897Z,4.80
2017-07-23T20:57:49.176Z,7.43
2017-07-23T21:00:17.415Z,9.73
2017-07-23T21:02:45.683Z,6.83
2017-07-23T21:05:13.948Z,6.30
2017-07-23T21:07:42.210Z,6.97
2017-07-23T21:10:11.611Z,2.80
2017-07-23T21:12:39.850Z,7.20
2017-07-23T21:15:08.098Z,16.00
2017-07-23T21:17:36.408Z,7.10
2017-07-23T21:20:05.411Z,6.13
2017-07-23T21:22:33.683Z,13.03
2017-07-23T21:25:02.730Z,10.13
2017-07-23T21:27:31.027Z,8.03
2017-07-23T21:29:59.313Z,15.87
2017-07-23T21:32:27.585Z,4.67
2017-07-23T21:34:55.816Z,5.23
2017-07-23T21:37:24.103Z,4.50
2017-07-23T21:39:53.183Z,10.60
2017-07-23T21:42:21.406Z,4.00
2017-07-23T21:44:50.467Z,9.03
2017-07-23T21:47:18.746Z,4.10
2017-07-23T21:49:47.021Z,12.20
2017-07-23T21:52:15.812Z,6.63
2017-07-23T21:54:44.115Z,13.67
2017-07-23T21:57:12.371Z,9.17
2017-07-23T21:59:40.607Z,6.03
2017-07-23T22:02:08.867Z,5.20
2017-07-23T22:04:37.873Z,6.20
2017-07-23T22:07:06.888Z,10.10
2017-07-23T22:09:35.171Z,3.80
2017-07-23T22:12:03.444Z,4.77
2017-07-23T22:14:31.722Z,7.80
2017-07-23T22:17:00.714Z,5.90
2017-07-23T22:19:28.995Z,3.13
2017-07-23T22:21:57.340Z,11.47
2017-07-23T22:24:26.338Z,4.43
2017-07-23T22:26:54.602Z,6.70
2017-07-23T22:29:23.634Z,8.30
2017-07-23T22:31:51.891Z,7.43
2017-07-23T22:34:20.913Z,10.40
2017-07-23T22:36:49.190Z,3.90
2017-07-23T22:39:17.437Z,4.60
2017-07-23T22:41:46.990Z,7.43
2017-07-23T22:44:15.671Z,4.80
2017-07-23T22:46:43.943Z,9.93
2017-07-23T22:49:12.198Z,3.70
2017-07-23T22:51:41.241Z,11.50
2017-07-23T22:54:09.476Z,7.00
2017-07-23T22:56:37.745Z,9.57
2017-07-23T22:59:06.004Z,4.63
2017-07-23T23:01:35.027Z,4.80
2017-07-23T23:04:04.007Z,5.83
2017-07-23T23:06:32.271Z,4.37
2017-07-23T23:09:00.514Z,5.70
2017-07-23T23:11:29.557Z,11.67
2017-07-23T23:13:57.851Z,7.40
2017-07-23T23:16:26.096Z,4.33
2017-07-23T23:18:55.153Z,4.27
2017-07-23T23:21:23.383Z,5.57
2017-07-23T23:23:51.670Z,3.53
2017-07-23T23:26:19.895Z,2.70
2017-07-23T23:28:48.146Z,10.00
2017-07-23T23:31:16.429Z,15.03
2017-07-23T23:33:44.721Z,2.87
2017-07-23T23:36:12.966Z,5.03
2017-07-23T23:38:41.221Z,10.80
2017-07-23T23:41:09.480Z,6.23
2017-07-23T23:43:38.480Z,8.07
2017-07-23T23:46:07.510Z,9.30
2017-07-23T23:48:35.762Z,11.83
2017-07-23T23:51:04.014Z,13.73
2017-07-23T23:53:32.261Z,7.23
2017-07-23T23:56:00.514Z,12.37
2017-07-23T23:58:28.771Z,7.03
